Change the Weather History Date:

Wednesday, February 20, 2013

  Actual Average Record
Temperature  
Mean Temperature 15 °F -  
Max Temperature 24 °F 42 °F 70 °F (1981)
Min Temperature 6 °F 21 °F -3 °F (1959)
Degree Days  
Heating Degree Days 50    
Moisture  
Dew Point 5 °F    
Average Humidity 62    
Maximum Humidity 86    
Minimum Humidity 43    
Precipitation  
Precipitation 0.00 in - - ()
Sea Level Pressure  
Sea Level Pressure 30.22 in    
Wind  
Wind Speed 12 mph (East)    
Max Wind Speed 18 mph    
Max Gust Speed 22 mph    
Visibility 10 miles    
Events Snow    
Averages and records for this station are not official NWS values.
T = Trace of Precipitation, MM = Missing Value Source: NWS Daily Summary

Daily Weather History Graph

Daily Weather History Graph

Search for Another Location

Airport or City:

Trip Planner

Search our weather history database for the weather conditions in past years. The results will help you decide how hot, cold, wet, or windy it might be!

Date:

Astronomy

Feb. 20, 2013 Rise Set
Actual Time 7:17 AM CST 6:11 PM CST
Civil Twilight 6:49 AM CST 6:39 PM CST
Nautical Twilight 6:17 AM CST 7:11 PM CST
Astronomical Twilight 5:45 AM CST 7:43 PM CST
Moon 1:32 PM CST (2/20) 3:40 AM CST (2/20)
Length of Visible Light 11h 49m
Length of Day
10h 54m
Waxing Gibbous, 76% of the Moon is Illuminated
Feb 20
Waxing Gibbous
Feb 25
Full
Mar 4
Last Quarter
Mar 11
New
Mar 19
First Quarter

Hourly Weather History & Observations

Time (CST) Temp. Windchill Dew Point Humidity Pressure Visibility Wind Dir Wind Speed Gust Speed Precip Events Conditions
12:15 AM 12.2 °F -0.2 °F 1.4 °F 62% 30.32 in 10.0 mi NE 9.2 mph - N/A   Clear
12:35 AM 12.2 °F -2.5 °F 1.4 °F 62% 30.31 in 10.0 mi NE 12.7 mph - N/A   Clear
12:55 AM 12.2 °F -0.2 °F -0.4 °F 57% 30.31 in 10.0 mi ENE 9.2 mph - N/A   Clear
1:15 AM 12.2 °F -1.8 °F -0.4 °F 57% 30.31 in 10.0 mi NE 11.5 mph - N/A   Clear
1:35 AM 10.4 °F 0.8 °F -0.4 °F 62% 30.31 in 10.0 mi ENE 5.8 mph - N/A   Clear
1:55 AM 10.4 °F -3.3 °F 1.4 °F 67% 30.31 in 10.0 mi ENE 10.4 mph - N/A   Clear
2:15 AM 10.4 °F -2.4 °F 1.4 °F 67% 30.31 in 10.0 mi ENE 9.2 mph - N/A   Clear
2:35 AM 10.4 °F -2.4 °F 1.4 °F 67% 30.30 in 10.0 mi ENE 9.2 mph - N/A   Clear
2:55 AM 8.6 °F -2.6 °F 1.4 °F 73% 30.29 in 10.0 mi ENE 6.9 mph - N/A   Clear
3:15 AM 8.6 °F -3.7 °F 1.4 °F 73% 30.28 in 10.0 mi ENE 8.1 mph - N/A   Clear
3:35 AM 8.6 °F -6.3 °F 1.4 °F 73% 30.26 in 10.0 mi ENE 11.5 mph - N/A   Clear
3:55 AM 8.6 °F -2.6 °F 1.4 °F 73% 30.27 in 10.0 mi East 6.9 mph - N/A   Clear
4:15 AM 8.6 °F -6.3 °F 1.4 °F 73% 30.26 in 10.0 mi East 11.5 mph - N/A   Clear
4:35 AM 6.8 °F -7.8 °F 1.4 °F 79% 30.25 in 10.0 mi East 10.4 mph - N/A   Clear
4:55 AM 6.8 °F -8.6 °F 1.4 °F 79% 30.25 in 10.0 mi East 11.5 mph - N/A   Clear
5:15 AM 6.8 °F -6.9 °F 1.4 °F 79% 30.25 in 10.0 mi East 9.2 mph - N/A   Clear
5:35 AM 6.8 °F -8.6 °F -0.4 °F 72% 30.25 in 10.0 mi East 11.5 mph - N/A   Clear
5:55 AM 6.8 °F -9.3 °F -0.4 °F 72% 30.26 in 10.0 mi East 12.7 mph - N/A   Clear
6:15 AM 6.8 °F -7.8 °F -0.4 °F 72% 30.26 in 10.0 mi East 10.4 mph - N/A   Scattered Clouds
6:35 AM 6.8 °F -9.3 °F -0.4 °F 72% 30.26 in 10.0 mi East 12.7 mph - N/A   Overcast
6:55 AM 6.8 °F -8.6 °F -0.4 °F 72% 30.26 in 10.0 mi East 11.5 mph - N/A   Overcast
7:15 AM 6.8 °F -8.6 °F 1.4 °F 79% 30.27 in 10.0 mi East 11.5 mph - N/A   Overcast
7:35 AM 6.8 °F -9.3 °F 1.4 °F 79% 30.27 in 10.0 mi East 12.7 mph - N/A   Overcast
8:15 AM 8.6 °F -7.7 °F 1.4 °F 73% 30.28 in 10.0 mi ESE 13.8 mph - N/A   Overcast
8:35 AM 8.6 °F -7.7 °F 1.4 °F 73% 30.27 in 10.0 mi East 13.8 mph - N/A   Overcast
9:15 AM 10.4 °F -4.8 °F 1.4 °F 67% 30.28 in 10.0 mi ESE 12.7 mph - N/A   Scattered Clouds
9:35 AM 12.2 °F -2.5 °F 3.2 °F 67% 30.28 in 10.0 mi ESE 12.7 mph - N/A   Mostly Cloudy
9:55 AM 14.0 °F 1.2 °F 3.2 °F 62% 30.29 in 10.0 mi SE 10.4 mph - N/A   Scattered Clouds
10:15 AM 14.0 °F 1.2 °F 3.2 °F 62% 30.28 in 10.0 mi SE 10.4 mph - N/A   Partly Cloudy
10:35 AM 14.0 °F 0.5 °F 3.2 °F 62% 30.29 in 10.0 mi SE 11.5 mph - N/A   Scattered Clouds
10:55 AM 15.8 °F 2.1 °F 5.0 °F 62% 30.28 in 10.0 mi SE 12.7 mph - N/A   Partly Cloudy
11:15 AM 15.8 °F 1.4 °F 5.0 °F 62% 30.28 in 10.0 mi ESE 13.8 mph - N/A   Mostly Cloudy
11:35 AM 17.6 °F 2.2 °F 5.0 °F 58% 30.26 in 10.0 mi ESE 17.3 mph - N/A   Partly Cloudy
11:55 AM 17.6 °F 1.7 °F 5.0 °F 58% 30.25 in 10.0 mi East 18.4 mph - N/A   Clear
12:15 PM 19.4 °F 5.0 °F 5.0 °F 54% 30.24 in 10.0 mi ESE 16.1 mph - N/A   Clear
12:35 PM 19.4 °F 6.6 °F 5.0 °F 54% 30.24 in 10.0 mi ESE 12.7 mph - N/A   Clear
12:55 PM 21.2 °F 7.3 °F 5.0 °F 50% 30.22 in 10.0 mi ESE 16.1 mph - N/A   Clear
1:15 PM 23.0 °F 10.1 °F 5.0 °F 46% 30.21 in 10.0 mi ESE 15.0 mph - N/A   Partly Cloudy
1:35 PM 23.0 °F 10.6 °F 5.0 °F 46% 30.19 in 10.0 mi ESE 13.8 mph 18.4 mph N/A   Clear
1:55 PM 23.0 °F 10.1 °F 5.0 °F 46% 30.18 in 10.0 mi ESE 15.0 mph 19.6 mph N/A   Clear
2:15 PM 23.0 °F 10.6 °F 6.8 °F 50% 30.18 in 10.0 mi East 13.8 mph - N/A   Scattered Clouds
2:35 PM 24.8 °F 12.9 °F 5.0 °F 43% 30.17 in 10.0 mi ESE 13.8 mph 21.9 mph N/A   Partly Cloudy
2:55 PM 24.8 °F 12.4 °F 5.0 °F 43% 30.17 in 10.0 mi ESE 15.0 mph - N/A   Partly Cloudy
3:15 PM 24.8 °F 11.9 °F 5.0 °F 43% 30.16 in 10.0 mi ESE 16.1 mph - N/A   Mostly Cloudy
3:35 PM 24.8 °F 12.4 °F 5.0 °F 43% 30.15 in 10.0 mi ESE 15.0 mph - N/A   Overcast
3:55 PM 23.0 °F 9.6 °F 5.0 °F 46% 30.15 in 10.0 mi ESE 16.1 mph - N/A   Mostly Cloudy
4:15 PM 23.0 °F 10.1 °F 5.0 °F 46% 30.15 in 10.0 mi ESE 15.0 mph - N/A   Mostly Cloudy
4:35 PM 23.0 °F 10.6 °F 5.0 °F 46% 30.15 in 10.0 mi ESE 13.8 mph - N/A   Clear
4:55 PM 23.0 °F 9.6 °F 5.0 °F 46% 30.14 in 10.0 mi ESE 16.1 mph - N/A   Scattered Clouds
5:15 PM 23.0 °F 9.6 °F 5.0 °F 46% 30.14 in 10.0 mi ESE 16.1 mph - N/A   Mostly Cloudy
5:35 PM 23.0 °F 10.6 °F 5.0 °F 46% 30.13 in 10.0 mi ESE 13.8 mph - N/A   Overcast
5:55 PM 21.2 °F 6.8 °F 6.8 °F 54% 30.13 in 10.0 mi ESE 17.3 mph - N/A   Overcast
6:15 PM 21.2 °F 6.8 °F 6.8 °F 54% 30.12 in 10.0 mi ESE 17.3 mph - N/A   Overcast
6:35 PM 21.2 °F 8.3 °F 6.8 °F 54% 30.12 in 10.0 mi East 13.8 mph - N/A   Overcast
6:55 PM 21.2 °F 7.8 °F 6.8 °F 54% 30.12 in 10.0 mi ESE 15.0 mph 19.6 mph N/A   Overcast
7:15 PM 21.2 °F 7.8 °F 6.8 °F 54% 30.12 in 10.0 mi East 15.0 mph - N/A   Overcast
7:35 PM 21.2 °F 7.3 °F 6.8 °F 54% 30.13 in 10.0 mi East 16.1 mph - N/A   Overcast
7:55 PM 21.2 °F 8.9 °F 8.6 °F 58% 30.12 in 10.0 mi East 12.7 mph - N/A   Overcast
8:15 PM 21.2 °F 6.4 °F 8.6 °F 58% 30.13 in 10.0 mi East 18.4 mph - N/A   Overcast
8:35 PM 21.2 °F 7.8 °F 10.4 °F 63% 30.13 in 8.0 mi East 15.0 mph - N/A Snow Light Snow
8:55 PM 19.4 °F 7.2 °F 14.0 °F 80% 30.14 in 3.0 mi East 11.5 mph - N/A Snow Light Snow
9:15 PM 19.4 °F 6.0 °F 14.0 °F 80% 30.14 in 3.0 mi East 13.8 mph - N/A Snow Light Snow
9:35 PM 19.4 °F 6.6 °F 15.8 °F 86% 30.14 in 5.0 mi East 12.7 mph - N/A Snow Light Snow
9:55 PM 19.4 °F 6.0 °F 14.0 °F 80% 30.14 in 8.0 mi East 13.8 mph - N/A Snow Light Snow
10:35 PM 21.2 °F 8.9 °F 14.0 °F 74% 30.14 in 10.0 mi East 12.7 mph - N/A Snow Light Snow
10:55 PM 21.2 °F 8.9 °F 12.2 °F 68% 30.14 in 10.0 mi East 12.7 mph - N/A   Overcast
11:15 PM 21.2 °F 11.7 °F 12.2 °F 68% 30.15 in 10.0 mi ESE 8.1 mph - N/A   Overcast
11:35 PM 23.0 °F 13.1 °F 10.4 °F 59% 30.17 in 10.0 mi SE 9.2 mph - N/A Snow Light Snow
11:55 PM 23.0 °F 11.7 °F 10.4 °F 59% 30.16 in 10.0 mi ESE 11.5 mph - N/A   Overcast